Ship Status Report: callsign E5U3011

sailwx.info

Track history (hours):
 
Tides and Currents Weather Stations Pressure Air Temp Water Temp Dewpoint Dewpoint Depression Visibility Wind Speed Wind Dir Waves Ship Positions

Callsign E5U3011 (name unknown)

Last reported at 2017-Sep-11 04:48 UTC. Time now 2017-Oct-23 06:31 UTC.
Position N 37°23' E 025°55'.
Warning: this ship's position is 42 days out of date.

Date/timePositionNaut miles runAvg speedWind from/ knotsBaromVisibWave heightAir tempDewpointWater temp
2017-Sep-11 04:48N 37°23' E 025°55'2 8.5
2017-Sep-11 04:30N 37°23' E 025°52'4 8.4
2017-Sep-11 04:00N 37°24' E 025°47'9 8.8
2017-Sep-11 03:01N 37°24' E 025°36'0 9.3
2017-Sep-11 02:59N 37°24' E 025°35'4 8.8
2017-Sep-11 02:30N 37°24' E 025°30'4 8.6
2017-Sep-11 02:00N 37°24' E 025°25'3 6.4
2017-Sep-11 01:30N 37°24' E 025°21'0 0.1
2017-Sep-11 01:00N 37°24' E 025°21'0 0.0
2017-Sep-11 00:30N 37°24' E 025°21'0 0.0
2017-Sep-11 00:00N 37°24' E 025°21'0 0.0
2017-Sep-10 23:30N 37°24' E 025°21'0 0.0
2017-Sep-10 23:00N 37°24' E 025°21'0 0.0
2017-Sep-10 22:30N 37°24' E 025°21'0 0.0
2017-Sep-10 21:59N 37°24' E 025°21'0 0.0
2017-Sep-10 21:30N 37°24' E 025°21'0 0.0
2017-Sep-10 21:00N 37°24' E 025°21'0 0.0
2017-Sep-10 20:30N 37°24' E 025°21'0 0.0
2017-Sep-10 20:00N 37°24' E 025°21'0 0.0
2017-Sep-10 19:30N 37°24' E 025°21'0 0.0
2017-Sep-10 19:00N 37°24' E 025°21'0 0.0
2017-Sep-10 18:30N 37°24' E 025°21'0 0.0
2017-Sep-10 18:00N 37°24' E 025°21'0 0.0
2017-Sep-10 17:30N 37°24' E 025°21'0 0.0
2017-Sep-10 17:00N 37°24' E 025°21'0 0.0
2017-Sep-10 16:30N 37°24' E 025°21'0 0.0
2017-Sep-10 16:00N 37°24' E 025°21'0 0.0
2017-Sep-10 15:30N 37°24' E 025°21'0 0.0
2017-Sep-10 15:00N 37°24' E 025°21'4 3.9
2017-Sep-10 14:00N 37°26' E 025°25'0 0.0
2017-Sep-10 13:30N 37°26' E 025°25'0 0.0
2017-Sep-10 13:00N 37°26' E 025°25'0 0.0
2017-Sep-10 12:30N 37°26' E 025°25'0 0.0
2017-Sep-10 12:00N 37°26' E 025°25'0 0.0
2017-Sep-10 11:30N 37°26' E 025°25'0 0.0
2017-Sep-10 11:00N 37°26' E 025°25'0 0.0
2017-Sep-10 10:30N 37°26' E 025°25'0 0.2
2017-Sep-10 10:00N 37°26' E 025°25'1 1.1
2017-Sep-10 09:30N 37°26' E 025°25'0 0.0
2017-Sep-10 09:00N 37°26' E 025°25'0 0.0
2017-Sep-10 08:30N 37°26' E 025°25'0 0.0
2017-Sep-10 08:00N 37°26' E 025°25'0 0.0
2017-Sep-10 07:30N 37°26' E 025°25'0 0.0
2017-Sep-10 07:00N 37°26' E 025°25'0 0.0
2017-Sep-10 06:30N 37°26' E 025°25'0 0.0
2017-Sep-10 06:00N 37°26' E 025°25'0 0.0
2017-Sep-10 05:30N 37°26' E 025°25'0 0.0
2017-Sep-10 05:00N 37°26' E 025°25'0 0.0
2017-Sep-10 04:30N 37°26' E 025°25'0 0.0
2017-Sep-10 04:00N 37°26' E 025°25'0 0.0
2017-Sep-10 03:30N 37°26' E 025°25'0 0.0
2017-Sep-10 03:00N 37°26' E 025°25'0 0.0
2017-Sep-10 02:30N 37°26' E 025°25'0 0.0
2017-Sep-10 02:00N 37°26' E 025°25'0 0.0
2017-Sep-10 01:30N 37°26' E 025°25'0 0.0
2017-Sep-10 01:00N 37°26' E 025°25'0 0.0
2017-Sep-10 00:30N 37°26' E 025°25'0 0.0
2017-Sep-10 00:00N 37°26' E 025°25'0 0.0
2017-Sep-09 23:30N 37°26' E 025°25'0 0.0
2017-Sep-09 23:00N 37°26' E 025°25'0 0.1
2017-Sep-09 22:30N 37°26' E 025°25'0 0.0
2017-Sep-09 22:00N 37°26' E 025°25'0 0.0
2017-Sep-09 21:30N 37°26' E 025°25'0 0.0
2017-Sep-09 21:00N 37°26' E 025°25'0 0.0
2017-Sep-09 20:30N 37°26' E 025°25'0 0.0
2017-Sep-09 20:00N 37°26' E 025°25'0 0.0
2017-Sep-09 19:30N 37°26' E 025°25'0 0.0
2017-Sep-09 19:00N 37°26' E 025°25'0 0.0
2017-Sep-09 18:30N 37°26' E 025°25'0 0.0
2017-Sep-09 18:00N 37°26' E 025°25'0 0.0
2017-Sep-09 17:30N 37°26' E 025°25'0 0.0
2017-Sep-09 17:00N 37°26' E 025°25'0 0.0
2017-Sep-09 16:30N 37°26' E 025°25'0 0.0
2017-Sep-09 16:00N 37°26' E 025°25'0 0.0
2017-Sep-09 15:30N 37°26' E 025°25'0 0.0
2017-Sep-09 15:00N 37°26' E 025°25'0 0.0
2017-Sep-09 14:30N 37°26' E 025°25'0 0.0
2017-Sep-09 14:00N 37°26' E 025°25'0 0.1
2017-Sep-09 13:30N 37°26' E 025°25'0 0.0
2017-Sep-09 13:00N 37°26' E 025°25'0 0.0
2017-Sep-09 12:30N 37°26' E 025°25'0 0.0
2017-Sep-09 12:00N 37°26' E 025°25'0 0.0
2017-Sep-09 11:30N 37°26' E 025°25'0 0.0
2017-Sep-09 11:00N 37°26' E 025°25'3 5.2
2017-Sep-09 10:30N 37°24' E 025°22'2 4.6
2017-Sep-09 10:00N 37°25' E 025°19'0 0.0
2017-Sep-09 09:30N 37°25' E 025°19'0 0.1
2017-Sep-09 09:00N 37°25' E 025°19'0 0.0
2017-Sep-09 08:30N 37°25' E 025°19'0 0.0
2017-Sep-09 08:00N 37°25' E 025°19'0 0.0
2017-Sep-09 07:30N 37°25' E 025°19'0 0.0
2017-Sep-09 07:00N 37°25' E 025°19'0 0.0
2017-Sep-09 06:30N 37°25' E 025°19'0 0.0
2017-Sep-09 06:00N 37°25' E 025°19'0 0.0
2017-Sep-09 05:30N 37°25' E 025°19'0 0.0
2017-Sep-09 05:00N 37°25' E 025°19'0 0.0
2017-Sep-09 04:30N 37°25' E 025°19'0 0.0
2017-Sep-09 04:00N 37°25' E 025°19'0 0.0
2017-Sep-09 03:30N 37°25' E 025°19'0 0.0
2017-Sep-09 03:00N 37°25' E 025°19'0 0.0
2017-Sep-09 02:30N 37°25' E 025°19'0 0.0
2017-Sep-09 02:00N 37°25' E 025°19'0 0.0
2017-Sep-09 01:30N 37°25' E 025°19'0 0.0
2017-Sep-09 01:00N 37°25' E 025°19'0 0.0
2017-Sep-09 00:30N 37°25' E 025°19'0 0.0
2017-Sep-08 23:59N 37°25' E 025°19'0 0.0
2017-Sep-08 23:30N 37°25' E 025°19'0 0.1
2017-Sep-08 23:00N 37°25' E 025°19'0 0.0
2017-Sep-08 22:30N 37°25' E 025°19'0 0.0
2017-Sep-08 22:00N 37°25' E 025°19'0 0.0
2017-Sep-08 21:30N 37°25' E 025°19'0 0.0
2017-Sep-08 21:00N 37°25' E 025°19'0 0.0
2017-Sep-08 20:30N 37°25' E 025°19'0 0.0
2017-Sep-08 20:00N 37°25' E 025°19'0 0.0
2017-Sep-08 19:30N 37°25' E 025°19'0 0.0
2017-Sep-08 19:00N 37°25' E 025°19'0 0.0
2017-Sep-08 18:30N 37°25' E 025°19'0 0.0
2017-Sep-08 18:00N 37°25' E 025°19'0 0.0
2017-Sep-08 17:30N 37°25' E 025°19'0 0.0
2017-Sep-08 17:00N 37°25' E 025°19'0 0.0
2017-Sep-08 16:30N 37°25' E 025°19'0 0.0
2017-Sep-08 16:00N 37°25' E 025°19'0 0.0
2017-Sep-08 15:30N 37°25' E 025°19'0 0.0
2017-Sep-08 15:00N 37°25' E 025°19'0 0.0
2017-Sep-08 14:30N 37°25' E 025°19'0 0.0
2017-Sep-08 14:00N 37°25' E 025°19'0 0.0
2017-Sep-08 13:30N 37°25' E 025°19'0 0.0
2017-Sep-08 13:00N 37°25' E 025°19'0 0.0
2017-Sep-08 12:30N 37°25' E 025°19'0 0.0
2017-Sep-08 12:00N 37°25' E 025°19'0 0.0
2017-Sep-08 11:29N 37°25' E 025°19'0 0.0
2017-Sep-08 11:00N 37°25' E 025°19'0 0.0
2017-Sep-08 10:30N 37°25' E 025°19'0 0.0
2017-Sep-08 10:00N 37°25' E 025°19'0 0.0
2017-Sep-08 09:30N 37°25' E 025°19'0 0.0
2017-Sep-08 09:00N 37°25' E 025°19'0 0.0
2017-Sep-08 08:30N 37°25' E 025°19'0 0.0
2017-Sep-08 08:00N 37°25' E 025°19'0 0.0
2017-Sep-08 07:30N 37°25' E 025°19'0 0.0
2017-Sep-08 07:00N 37°25' E 025°19'0 0.0
2017-Sep-08 06:30N 37°25' E 025°19'0 0.0
2017-Sep-08 06:00N 37°25' E 025°19'0 0.0
2017-Sep-08 05:30N 37°25' E 025°19'0 0.0
2017-Sep-08 05:00N 37°25' E 025°19'0 0.0
2017-Sep-08 04:30N 37°25' E 025°19'0 0.0
2017-Sep-08 04:00N 37°25' E 025°19'0 0.0
2017-Sep-08 03:30N 37°25' E 025°19'0 0.0
2017-Sep-08 03:00N 37°25' E 025°19'0 0.0
2017-Sep-08 02:30N 37°25' E 025°19'0 0.0
2017-Sep-08 02:00N 37°25' E 025°19'0 0.0
2017-Sep-08 01:30N 37°25' E 025°19'0 0.0
2017-Sep-08 01:00N 37°25' E 025°19'0 0.0
2017-Sep-08 00:29N 37°25' E 025°19'0 0.0
2017-Sep-08 00:00N 37°25' E 025°19'0 0.0
2017-Sep-07 23:30N 37°25' E 025°19'0 0.0
2017-Sep-07 23:00N 37°25' E 025°19'0 0.0
2017-Sep-07 22:30N 37°25' E 025°19'0 0.0
2017-Sep-07 22:00N 37°25' E 025°19'0 0.0
2017-Sep-07 21:30N 37°25' E 025°19'0 0.0
2017-Sep-07 21:00N 37°25' E 025°19'0 0.0
2017-Sep-07 20:30N 37°25' E 025°19'0 0.0
2017-Sep-07 20:00N 37°25' E 025°19'0 0.0
2017-Sep-07 19:30N 37°25' E 025°19'0 0.0
2017-Sep-07 19:00N 37°25' E 025°19'0 0.0
2017-Sep-07 18:30N 37°25' E 025°19'0 0.0
2017-Sep-07 18:00N 37°25' E 025°19'0 0.0
2017-Sep-07 17:30N 37°25' E 025°19'0 0.0
2017-Sep-07 17:00N 37°25' E 025°19'0 0.0
2017-Sep-07 16:30N 37°25' E 025°19'0 0.0
2017-Sep-07 16:00N 37°25' E 025°19'0 0.0
2017-Sep-07 15:30N 37°25' E 025°19'0 0.0
2017-Sep-07 15:00N 37°25' E 025°19'0 0.0
2017-Sep-07 14:30N 37°25' E 025°19'0 0.0
2017-Sep-07 14:00N 37°25' E 025°19'0 0.0
2017-Sep-07 13:30N 37°25' E 025°19'0 0.0
2017-Sep-07 13:00N 37°25' E 025°19'0 0.0
2017-Sep-07 12:30N 37°25' E 025°19'0 0.0
2017-Sep-07 12:00N 37°25' E 025°19'0 0.0
2017-Sep-07 11:30N 37°25' E 025°19'0 0.0
2017-Sep-07 11:00N 37°25' E 025°19'0 0.1
2017-Sep-07 10:30N 37°25' E 025°19'3 6.4
2017-Sep-07 10:00N 37°23' E 025°17'3 5.3
2017-Sep-07 09:30N 37°22' E 025°13'0 0.0
2017-Sep-07 09:00N 37°22' E 025°13'0 0.0
2017-Sep-07 08:30N 37°22' E 025°13'0 0.0
2017-Sep-07 08:00N 37°22' E 025°13'0 0.0
2017-Sep-07 07:30N 37°22' E 025°13'0 0.0
2017-Sep-07 07:00N 37°22' E 025°13'0 0.0
2017-Sep-07 06:30N 37°22' E 025°13'0 0.0
2017-Sep-07 06:00N 37°22' E 025°13'0 0.0
2017-Sep-07 05:30N 37°22' E 025°13'0 0.0
2017-Sep-07 05:00N 37°22' E 025°13'0 0.0
2017-Sep-07 04:30N 37°22' E 025°13'0 0.0
2017-Sep-07 04:00N 37°22' E 025°13'0 0.0
2017-Sep-07 03:30N 37°22' E 025°13'0 0.0
2017-Sep-07 03:00N 37°22' E 025°13'0 0.0
2017-Sep-07 02:30N 37°22' E 025°13'0 0.0
2017-Sep-07 02:00N 37°22' E 025°13'0 0.0
2017-Sep-07 01:30N 37°22' E 025°13'0 0.0
2017-Sep-07 01:00N 37°22' E 025°13'0 0.0
2017-Sep-07 00:30N 37°22' E 025°13'0 0.0
2017-Sep-07 00:00N 37°22' E 025°13'0 0.0
2017-Sep-06 23:30N 37°22' E 025°13'0 0.0
2017-Sep-06 23:00N 37°22' E 025°13'0 0.0
2017-Sep-06 22:30N 37°22' E 025°13'0 0.0
2017-Sep-06 22:00N 37°22' E 025°13'0 0.0
2017-Sep-06 21:30N 37°22' E 025°13'0 0.0
2017-Sep-06 21:00N 37°22' E 025°13'0 0.0
2017-Sep-06 20:30N 37°22' E 025°13'0 0.0
2017-Sep-06 20:00N 37°22' E 025°13'0 0.0
2017-Sep-06 19:30N 37°22' E 025°13'0 0.0
2017-Sep-06 19:00N 37°22' E 025°13'0 0.0
2017-Sep-06 18:30N 37°22' E 025°13'0 0.0
2017-Sep-06 18:00N 37°22' E 025°13'0 0.0
2017-Sep-06 17:30N 37°22' E 025°13'0 0.0
2017-Sep-06 17:00N 37°22' E 025°13'0 0.0
2017-Sep-06 16:30N 37°22' E 025°13'0 0.0
2017-Sep-06 16:00N 37°22' E 025°13'0 0.0
2017-Sep-06 15:30N 37°22' E 025°13'0 0.0
2017-Sep-06 15:00N 37°22' E 025°13'0 0.0
2017-Sep-06 14:30N 37°22' E 025°13'0 0.0
2017-Sep-06 14:00N 37°22' E 025°13'0 0.0
2017-Sep-06 13:30N 37°22' E 025°13'0 0.0
2017-Sep-06 13:00N 37°22' E 025°13'0 0.0
2017-Sep-06 12:30N 37°22' E 025°13'0 0.0
2017-Sep-06 12:00N 37°22' E 025°13'0 0.0
2017-Sep-06 11:30N 37°22' E 025°13'0 0.1
2017-Sep-06 11:00N 37°22' E 025°14'2 4.7
2017-Sep-06 10:30N 37°21' E 025°11'11 8.4
2017-Sep-06 09:11N 37°26' E 024°58'1 0.2
2017-Sep-06 04:47N 37°25' E 024°59'0 0.0
2017-Sep-06 04:30N 37°25' E 024°59'0 0.0
2017-Sep-06 04:00N 37°25' E 024°59'0 0.0
2017-Sep-06 03:30N 37°25' E 024°59'0 0.0
2017-Sep-06 02:39N 37°25' E 024°59'0 0.0
2017-Sep-06 02:30N 37°25' E 024°59'0 0.0
2017-Sep-06 02:00N 37°25' E 024°59'0 0.0
2017-Sep-06 01:30N 37°25' E 024°59'0 0.0
2017-Sep-06 01:00N 37°25' E 024°59'0 0.0
2017-Sep-05 23:46N 37°25' E 024°59'0 0.0
2017-Sep-05 23:30N 37°25' E 024°59'0 0.0
2017-Sep-05 22:54N 37°25' E 024°59'0 0.0
2017-Sep-05 22:30N 37°25' E 024°59'0 0.0
2017-Sep-05 21:59N 37°25' E 024°59'0 0.0
2017-Sep-05 21:30N 37°25' E 024°59'0 0.0
2017-Sep-05 21:00N 37°25' E 024°59'0 0.0
2017-Sep-05 20:30N 37°25' E 024°59'0 0.0
2017-Sep-05 20:00N 37°25' E 024°59'0 0.0
2017-Sep-05 19:30N 37°25' E 024°59'0 0.0
2017-Sep-05 19:00N 37°25' E 024°59'0 0.0
2017-Sep-05 18:30N 37°25' E 024°59'0 0.0
2017-Sep-05 18:00N 37°25' E 024°59'0 0.0
2017-Sep-05 17:20N 37°25' E 024°59'0 0.0
2017-Sep-05 17:00N 37°25' E 024°59'0 0.0
2017-Sep-05 16:30N 37°25' E 024°59'2 0.1
2017-Sep-04 13:14N 37°27' E 024°57'6 8.0
2017-Sep-04 12:30N 37°31' E 024°52'4 8.7
2017-Sep-04 12:00N 37°30' E 024°46'52 1.7
2017-Sep-03 04:29N 37°32' E 023°40'6 8.5
2017-Sep-03 03:50N 37°33' E 023°34'4 8.4
2017-Sep-03 03:24N 37°35' E 023°29'3 7.7
2017-Sep-03 02:58N 37°33' E 023°26'  
Track history (hours):
 
Tides and Currents Weather Stations Pressure Air Temp Water Temp Dewpoint Dewpoint Depression Visibility Wind Speed Wind Dir Waves Ship Positions

Callsign E5U3011 (name unknown)

Last reported at 2017-Sep-11 04:48 UTC. Time now 2017-Oct-23 06:31 UTC.
Position N 37°23' E 025°55'.
Warning: this ship's position is 42 days out of date.

Date/timePositionNaut miles runAvg speedWind from/ knotsBaromVisibWave heightAir tempDewpointWater temp
2017-Sep-11 04:48N 37°23' E 025°55'2 8.5
2017-Sep-11 04:30N 37°23' E 025°52'4 8.4
2017-Sep-11 04:00N 37°24' E 025°47'9 8.8
2017-Sep-11 03:01N 37°24' E 025°36'0 9.3
2017-Sep-11 02:59N 37°24' E 025°35'4 8.8
2017-Sep-11 02:30N 37°24' E 025°30'4 8.6
2017-Sep-11 02:00N 37°24' E 025°25'3 6.4
2017-Sep-11 01:30N 37°24' E 025°21'0 0.1
2017-Sep-11 01:00N 37°24' E 025°21'0 0.0
2017-Sep-11 00:30N 37°24' E 025°21'0 0.0
2017-Sep-11 00:00N 37°24' E 025°21'0 0.0
2017-Sep-10 23:30N 37°24' E 025°21'0 0.0
2017-Sep-10 23:00N 37°24' E 025°21'0 0.0
2017-Sep-10 22:30N 37°24' E 025°21'0 0.0
2017-Sep-10 21:59N 37°24' E 025°21'0 0.0
2017-Sep-10 21:30N 37°24' E 025°21'0 0.0
2017-Sep-10 21:00N 37°24' E 025°21'0 0.0
2017-Sep-10 20:30N 37°24' E 025°21'0 0.0
2017-Sep-10 20:00N 37°24' E 025°21'0 0.0
2017-Sep-10 19:30N 37°24' E 025°21'0 0.0
2017-Sep-10 19:00N 37°24' E 025°21'0 0.0
2017-Sep-10 18:30N 37°24' E 025°21'0 0.0
2017-Sep-10 18:00N 37°24' E 025°21'0 0.0
2017-Sep-10 17:30N 37°24' E 025°21'0 0.0
2017-Sep-10 17:00N 37°24' E 025°21'0 0.0
2017-Sep-10 16:30N 37°24' E 025°21'0 0.0
2017-Sep-10 16:00N 37°24' E 025°21'0 0.0
2017-Sep-10 15:30N 37°24' E 025°21'0 0.0
2017-Sep-10 15:00N 37°24' E 025°21'4 3.9
2017-Sep-10 14:00N 37°26' E 025°25'0 0.0
2017-Sep-10 13:30N 37°26' E 025°25'0 0.0
2017-Sep-10 13:00N 37°26' E 025°25'0 0.0
2017-Sep-10 12:30N 37°26' E 025°25'0 0.0
2017-Sep-10 12:00N 37°26' E 025°25'0 0.0
2017-Sep-10 11:30N 37°26' E 025°25'0 0.0
2017-Sep-10 11:00N 37°26' E 025°25'0 0.0
2017-Sep-10 10:30N 37°26' E 025°25'0 0.2
2017-Sep-10 10:00N 37°26' E 025°25'1 1.1
2017-Sep-10 09:30N 37°26' E 025°25'0 0.0
2017-Sep-10 09:00N 37°26' E 025°25'0 0.0
2017-Sep-10 08:30N 37°26' E 025°25'0 0.0
2017-Sep-10 08:00N 37°26' E 025°25'0 0.0
2017-Sep-10 07:30N 37°26' E 025°25'0 0.0
2017-Sep-10 07:00N 37°26' E 025°25'0 0.0
2017-Sep-10 06:30N 37°26' E 025°25'0 0.0
2017-Sep-10 06:00N 37°26' E 025°25'0 0.0
2017-Sep-10 05:30N 37°26' E 025°25'0 0.0
2017-Sep-10 05:00N 37°26' E 025°25'0 0.0
2017-Sep-10 04:30N 37°26' E 025°25'0 0.0
2017-Sep-10 04:00N 37°26' E 025°25'0 0.0
2017-Sep-10 03:30N 37°26' E 025°25'0 0.0
2017-Sep-10 03:00N 37°26' E 025°25'0 0.0
2017-Sep-10 02:30N 37°26' E 025°25'0 0.0
2017-Sep-10 02:00N 37°26' E 025°25'0 0.0
2017-Sep-10 01:30N 37°26' E 025°25'0 0.0
2017-Sep-10 01:00N 37°26' E 025°25'0 0.0
2017-Sep-10 00:30N 37°26' E 025°25'0 0.0
2017-Sep-10 00:00N 37°26' E 025°25'0 0.0
2017-Sep-09 23:30N 37°26' E 025°25'0 0.0
2017-Sep-09 23:00N 37°26' E 025°25'0 0.1
2017-Sep-09 22:30N 37°26' E 025°25'0 0.0
2017-Sep-09 22:00N 37°26' E 025°25'0 0.0
2017-Sep-09 21:30N 37°26' E 025°25'0 0.0
2017-Sep-09 21:00N 37°26' E 025°25'0 0.0
2017-Sep-09 20:30N 37°26' E 025°25'0 0.0
2017-Sep-09 20:00N 37°26' E 025°25'0 0.0
2017-Sep-09 19:30N 37°26' E 025°25'0 0.0
2017-Sep-09 19:00N 37°26' E 025°25'0 0.0
2017-Sep-09 18:30N 37°26' E 025°25'0 0.0
2017-Sep-09 18:00N 37°26' E 025°25'0 0.0
2017-Sep-09 17:30N 37°26' E 025°25'0 0.0
2017-Sep-09 17:00N 37°26' E 025°25'0 0.0
2017-Sep-09 16:30N 37°26' E 025°25'0 0.0
2017-Sep-09 16:00N 37°26' E 025°25'0 0.0
2017-Sep-09 15:30N 37°26' E 025°25'0 0.0
2017-Sep-09 15:00N 37°26' E 025°25'0 0.0
2017-Sep-09 14:30N 37°26' E 025°25'0 0.0
2017-Sep-09 14:00N 37°26' E 025°25'0 0.1
2017-Sep-09 13:30N 37°26' E 025°25'0 0.0
2017-Sep-09 13:00N 37°26' E 025°25'0 0.0
2017-Sep-09 12:30N 37°26' E 025°25'0 0.0
2017-Sep-09 12:00N 37°26' E 025°25'0 0.0
2017-Sep-09 11:30N 37°26' E 025°25'0 0.0
2017-Sep-09 11:00N 37°26' E 025°25'3 5.2
2017-Sep-09 10:30N 37°24' E 025°22'2 4.6
2017-Sep-09 10:00N 37°25' E 025°19'0 0.0
2017-Sep-09 09:30N 37°25' E 025°19'0 0.1
2017-Sep-09 09:00N 37°25' E 025°19'0 0.0
2017-Sep-09 08:30N 37°25' E 025°19'0 0.0
2017-Sep-09 08:00N 37°25' E 025°19'0 0.0
2017-Sep-09 07:30N 37°25' E 025°19'0 0.0
2017-Sep-09 07:00N 37°25' E 025°19'0 0.0
2017-Sep-09 06:30N 37°25' E 025°19'0 0.0
2017-Sep-09 06:00N 37°25' E 025°19'0 0.0
2017-Sep-09 05:30N 37°25' E 025°19'0 0.0
2017-Sep-09 05:00N 37°25' E 025°19'0 0.0
2017-Sep-09 04:30N 37°25' E 025°19'0 0.0
2017-Sep-09 04:00N 37°25' E 025°19'0 0.0
2017-Sep-09 03:30N 37°25' E 025°19'0 0.0
2017-Sep-09 03:00N 37°25' E 025°19'0 0.0
2017-Sep-09 02:30N 37°25' E 025°19'0 0.0
2017-Sep-09 02:00N 37°25' E 025°19'0 0.0
2017-Sep-09 01:30N 37°25' E 025°19'0 0.0
2017-Sep-09 01:00N 37°25' E 025°19'0 0.0
2017-Sep-09 00:30N 37°25' E 025°19'0 0.0
2017-Sep-08 23:59N 37°25' E 025°19'0 0.0
2017-Sep-08 23:30N 37°25' E 025°19'0 0.1
2017-Sep-08 23:00N 37°25' E 025°19'0 0.0
2017-Sep-08 22:30N 37°25' E 025°19'0 0.0
2017-Sep-08 22:00N 37°25' E 025°19'0 0.0
2017-Sep-08 21:30N 37°25' E 025°19'0 0.0
2017-Sep-08 21:00N 37°25' E 025°19'0 0.0
2017-Sep-08 20:30N 37°25' E 025°19'0 0.0
2017-Sep-08 20:00N 37°25' E 025°19'0 0.0
2017-Sep-08 19:30N 37°25' E 025°19'0 0.0
2017-Sep-08 19:00N 37°25' E 025°19'0 0.0
2017-Sep-08 18:30N 37°25' E 025°19'0 0.0
2017-Sep-08 18:00N 37°25' E 025°19'0 0.0
2017-Sep-08 17:30N 37°25' E 025°19'0 0.0
2017-Sep-08 17:00N 37°25' E 025°19'0 0.0
2017-Sep-08 16:30N 37°25' E 025°19'0 0.0
2017-Sep-08 16:00N 37°25' E 025°19'0 0.0
2017-Sep-08 15:30N 37°25' E 025°19'0 0.0
2017-Sep-08 15:00N 37°25' E 025°19'0 0.0
2017-Sep-08 14:30N 37°25' E 025°19'0 0.0
2017-Sep-08 14:00N 37°25' E 025°19'0 0.0
2017-Sep-08 13:30N 37°25' E 025°19'0 0.0
2017-Sep-08 13:00N 37°25' E 025°19'0 0.0
2017-Sep-08 12:30N 37°25' E 025°19'0 0.0
2017-Sep-08 12:00N 37°25' E 025°19'0 0.0
2017-Sep-08 11:29N 37°25' E 025°19'0 0.0
2017-Sep-08 11:00N 37°25' E 025°19'0 0.0
2017-Sep-08 10:30N 37°25' E 025°19'0 0.0
2017-Sep-08 10:00N 37°25' E 025°19'0 0.0
2017-Sep-08 09:30N 37°25' E 025°19'0 0.0
2017-Sep-08 09:00N 37°25' E 025°19'0 0.0
2017-Sep-08 08:30N 37°25' E 025°19'0 0.0
2017-Sep-08 08:00N 37°25' E 025°19'0 0.0
2017-Sep-08 07:30N 37°25' E 025°19'0 0.0
2017-Sep-08 07:00N 37°25' E 025°19'0 0.0
2017-Sep-08 06:30N 37°25' E 025°19'0 0.0
2017-Sep-08 06:00N 37°25' E 025°19'0 0.0
2017-Sep-08 05:30N 37°25' E 025°19'0 0.0
2017-Sep-08 05:00N 37°25' E 025°19'0 0.0
2017-Sep-08 04:30N 37°25' E 025°19'0 0.0
2017-Sep-08 04:00N 37°25' E 025°19'0 0.0
2017-Sep-08 03:30N 37°25' E 025°19'0 0.0
2017-Sep-08 03:00N 37°25' E 025°19'0 0.0
2017-Sep-08 02:30N 37°25' E 025°19'0 0.0
2017-Sep-08 02:00N 37°25' E 025°19'0 0.0
2017-Sep-08 01:30N 37°25' E 025°19'0 0.0
2017-Sep-08 01:00N 37°25' E 025°19'0 0.0
2017-Sep-08 00:29N 37°25' E 025°19'0 0.0
2017-Sep-08 00:00N 37°25' E 025°19'0 0.0
2017-Sep-07 23:30N 37°25' E 025°19'0 0.0
2017-Sep-07 23:00N 37°25' E 025°19'0 0.0
2017-Sep-07 22:30N 37°25' E 025°19'0 0.0
2017-Sep-07 22:00N 37°25' E 025°19'0 0.0
2017-Sep-07 21:30N 37°25' E 025°19'0 0.0
2017-Sep-07 21:00N 37°25' E 025°19'0 0.0
2017-Sep-07 20:30N 37°25' E 025°19'0 0.0
2017-Sep-07 20:00N 37°25' E 025°19'0 0.0
2017-Sep-07 19:30N 37°25' E 025°19'0 0.0
2017-Sep-07 19:00N 37°25' E 025°19'0 0.0
2017-Sep-07 18:30N 37°25' E 025°19'0 0.0
2017-Sep-07 18:00N 37°25' E 025°19'0 0.0
2017-Sep-07 17:30N 37°25' E 025°19'0 0.0
2017-Sep-07 17:00N 37°25' E 025°19'0 0.0
2017-Sep-07 16:30N 37°25' E 025°19'0 0.0
2017-Sep-07 16:00N 37°25' E 025°19'0 0.0
2017-Sep-07 15:30N 37°25' E 025°19'0 0.0
2017-Sep-07 15:00N 37°25' E 025°19'0 0.0
2017-Sep-07 14:30N 37°25' E 025°19'0 0.0
2017-Sep-07 14:00N 37°25' E 025°19'0 0.0
2017-Sep-07 13:30N 37°25' E 025°19'0 0.0
2017-Sep-07 13:00N 37°25' E 025°19'0 0.0
2017-Sep-07 12:30N 37°25' E 025°19'0 0.0
2017-Sep-07 12:00N 37°25' E 025°19'0 0.0
2017-Sep-07 11:30N 37°25' E 025°19'0 0.0
2017-Sep-07 11:00N 37°25' E 025°19'0 0.1
2017-Sep-07 10:30N 37°25' E 025°19'3 6.4
2017-Sep-07 10:00N 37°23' E 025°17'3 5.3
2017-Sep-07 09:30N 37°22' E 025°13'0 0.0
2017-Sep-07 09:00N 37°22' E 025°13'0 0.0
2017-Sep-07 08:30N 37°22' E 025°13'0 0.0
2017-Sep-07 08:00N 37°22' E 025°13'0 0.0
2017-Sep-07 07:30N 37°22' E 025°13'0 0.0
2017-Sep-07 07:00N 37°22' E 025°13'0 0.0
2017-Sep-07 06:30N 37°22' E 025°13'0 0.0
2017-Sep-07 06:00N 37°22' E 025°13'0 0.0
2017-Sep-07 05:30N 37°22' E 025°13'0 0.0
2017-Sep-07 05:00N 37°22' E 025°13'0 0.0
2017-Sep-07 04:30N 37°22' E 025°13'0 0.0
2017-Sep-07 04:00N 37°22' E 025°13'0 0.0
2017-Sep-07 03:30N 37°22' E 025°13'0 0.0
2017-Sep-07 03:00N 37°22' E 025°13'0 0.0
2017-Sep-07 02:30N 37°22' E 025°13'0 0.0
2017-Sep-07 02:00N 37°22' E 025°13'0 0.0
2017-Sep-07 01:30N 37°22' E 025°13'0 0.0
2017-Sep-07 01:00N 37°22' E 025°13'0 0.0
2017-Sep-07 00:30N 37°22' E 025°13'0 0.0
2017-Sep-07 00:00N 37°22' E 025°13'0 0.0
2017-Sep-06 23:30N 37°22' E 025°13'0 0.0
2017-Sep-06 23:00N 37°22' E 025°13'0 0.0
2017-Sep-06 22:30N 37°22' E 025°13'0 0.0
2017-Sep-06 22:00N 37°22' E 025°13'0 0.0
2017-Sep-06 21:30N 37°22' E 025°13'0 0.0
2017-Sep-06 21:00N 37°22' E 025°13'0 0.0
2017-Sep-06 20:30N 37°22' E 025°13'0 0.0
2017-Sep-06 20:00N 37°22' E 025°13'0 0.0
2017-Sep-06 19:30N 37°22' E 025°13'0 0.0
2017-Sep-06 19:00N 37°22' E 025°13'0 0.0
2017-Sep-06 18:30N 37°22' E 025°13'0 0.0
2017-Sep-06 18:00N 37°22' E 025°13'0 0.0
2017-Sep-06 17:30N 37°22' E 025°13'0 0.0
2017-Sep-06 17:00N 37°22' E 025°13'0 0.0
2017-Sep-06 16:30N 37°22' E 025°13'0 0.0
2017-Sep-06 16:00N 37°22' E 025°13'0 0.0
2017-Sep-06 15:30N 37°22' E 025°13'0 0.0
2017-Sep-06 15:00N 37°22' E 025°13'0 0.0
2017-Sep-06 14:30N 37°22' E 025°13'0 0.0
2017-Sep-06 14:00N 37°22' E 025°13'0 0.0
2017-Sep-06 13:30N 37°22' E 025°13'0 0.0
2017-Sep-06 13:00N 37°22' E 025°13'0 0.0
2017-Sep-06 12:30N 37°22' E 025°13'0 0.0
2017-Sep-06 12:00N 37°22' E 025°13'0 0.0
2017-Sep-06 11:30N 37°22' E 025°13'0 0.1
2017-Sep-06 11:00N 37°22' E 025°14'2 4.7
2017-Sep-06 10:30N 37°21' E 025°11'11 8.4
2017-Sep-06 09:11N 37°26' E 024°58'1 0.2
2017-Sep-06 04:47N 37°25' E 024°59'0 0.0
2017-Sep-06 04:30N 37°25' E 024°59'0 0.0
2017-Sep-06 04:00N 37°25' E 024°59'0 0.0
2017-Sep-06 03:30N 37°25' E 024°59'0 0.0
2017-Sep-06 02:39N 37°25' E 024°59'0 0.0
2017-Sep-06 02:30N 37°25' E 024°59'0 0.0
2017-Sep-06 02:00N 37°25' E 024°59'0 0.0
2017-Sep-06 01:30N 37°25' E 024°59'0 0.0
2017-Sep-06 01:00N 37°25' E 024°59'0 0.0
2017-Sep-05 23:46N 37°25' E 024°59'0 0.0
2017-Sep-05 23:30N 37°25' E 024°59'0 0.0
2017-Sep-05 22:54N 37°25' E 024°59'0 0.0
2017-Sep-05 22:30N 37°25' E 024°59'0 0.0
2017-Sep-05 21:59N 37°25' E 024°59'0 0.0
2017-Sep-05 21:30N 37°25' E 024°59'0 0.0
2017-Sep-05 21:00N 37°25' E 024°59'0 0.0
2017-Sep-05 20:30N 37°25' E 024°59'0 0.0
2017-Sep-05 20:00N 37°25' E 024°59'0 0.0
2017-Sep-05 19:30N 37°25' E 024°59'0 0.0
2017-Sep-05 19:00N 37°25' E 024°59'0 0.0
2017-Sep-05 18:30N 37°25' E 024°59'0 0.0
2017-Sep-05 18:00N 37°25' E 024°59'0 0.0
2017-Sep-05 17:20N 37°25' E 024°59'0 0.0
2017-Sep-05 17:00N 37°25' E 024°59'0 0.0
2017-Sep-05 16:30N 37°25' E 024°59'2 0.1
2017-Sep-04 13:14N 37°27' E 024°57'6 8.0
2017-Sep-04 12:30N 37°31' E 024°52'4 8.7
2017-Sep-04 12:00N 37°30' E 024°46'52 1.7
2017-Sep-03 04:29N 37°32' E 023°40'6 8.5
2017-Sep-03 03:50N 37°33' E 023°34'4 8.4
2017-Sep-03 03:24N 37°35' E 023°29'3 7.7
2017-Sep-03 02:58N 37°33' E 023°26'  

Dump ship's entire track history